Milford, MA

10:05 AM EST on February 06, 2016 (GMT -0500)
Congress St | | Change Station
CLOSE
Current Station
Personal Weather Station
Location: Milford, MA
Elevation: 394 ft
Nearby Weather Stations

Elev 394 ft 42.15 °N, 71.53 °W | Updated 0 second ago

Partly Cloudy
Partly Cloudy
28.5 °F
Feels Like 28 °F
N
2.2
Wind Variable Wind from West
Gusts 4.6 mph

Today
High -- | Low -- °F
--% Chance of Precip.
Yesterday
High -- | Low -- °F
Precip. -- in
Pressure 30.37 in
Visibility 10.0 miles
Clouds Clear
Windchill 28 °F
Dew Point 27 °F
Humidity 95%
Rainfall 0.00 in
Snow Depth Not available.
6:54 AM 5:06 PM
Waning Crescent, 5% visible
METAR KSFZ 061455Z AUTO 25003KT 10SM CLR M02/M05 A3037 RMK AO1 P0002 60003 52010
Pressure 30.37 in
Visibility 10.0 miles
Clouds Clear
Windchill 28 °F
Dew Point 27 °F
Humidity 95%
Rainfall 0.00 in
Snow Depth Not available.
6:54 AM 5:06 PM
Waning Crescent, 5% visible
METAR KSFZ 061455Z AUTO 25003KT 10SM CLR M02/M05 A3037 RMK AO1 P0002 60003 52010

10-Day Weather Forecast

Almanac

Astronomy

Feb. 06, 2016 Rise Set
Actual Time
Civil Twilight
Nautical Twilight
Astronomical Twilight
Moon
Length of Visible Light
Length of Day
Tomorrow will be .
, % of the Moon is Illuminated

Today's Extremes

State Highs State Lows

Community

WunderPhotos

Upload Photos

1,890,984 photos uploaded!

WunderBlog® & News

Nearby

Air Quality

  Air Quality AQ Index Pollutant
Not available.

Snow Depth

Station Depth Elevation

Earthquake Activity

City Distance Mag. Time & Date
Minimum magnitude displayed is 2.5.

Coastal Water Temperatures

Place Temperature

Stations

Nearby Weather Stations

Station Location Temp. Windchill Dew Point Humidity Wind Precip. Elev Updated Type
                   

Watches & Warnings

There are currently no watches in effect.